Terminal Aerodrome Forecast
Issued by NWS Paducah, KY

Home | Current Version | Previous Version | Text Only | Print | Product List | Glossary On
Versions: 1 2 3 4 5 6 7 8 9 10 11 12 13 14 15 16 17
663
FTUS43 KPAH 192338
TAFEVV
TAF
KEVV 192338Z 2000/2024 35007KT P6SM FEW250
     FM200100 02005KT P6SM SCT250
     FM201400 05007KT P6SM FEW090 BKN180
     FM201900 03009KT 6SM -SHRA BR SCT025 OVC050=

USA.gov is the U.S. government's official web portal to all federal, state and local government web resources and services.